Terminal Aerodrome Forecast
Issued by NWS

Home | Current Version | Previous Version | Text Only | Print | Product List | Glossary On
Versions: 1 2 3 4 5 6 7 8 9 10 11 12 13 14 15 16 17 18 19 20
000
FTUS42 KTAE 181100
TAFECP
TAF
KECP 181121Z 1812/1912 VRB03KT P6SM SCT250
     FM181500 01005KT P6SM BKN250
     FM181900 24008KT P6SM SCT050 BKN250
     FM190400 00000KT P6SM BKN250=

USA.gov is the U.S. government's official web portal to all federal, state and local government web resources and services.